sensor_id;sensor_type;location;lat;lon;timestamp;P1;durP1;ratioP1;P2;durP2;ratioP2
60718;SDS011;46567;51.660;5.824;2024-01-30T00:02:39;10.0;;;6.9;;
60718;SDS011;46567;51.660;5.824;2024-01-30T00:07:39;11.7;;;7.2;;
60718;SDS011;46567;51.660;5.824;2024-01-30T00:12:39;11.5;;;7.0;;
60718;SDS011;46567;51.660;5.824;2024-01-30T00:17:39;10.3;;;7.2;;
60718;SDS011;46567;51.660;5.824;2024-01-30T00:22:39;11.7;;;7.0;;
60718;SDS011;46567;51.660;5.824;2024-01-30T00:27:39;9.7;;;6.9;;
60718;SDS011;46567;51.660;5.824;2024-01-30T00:32:39;12.2;;;6.7;;
60718;SDS011;46567;51.660;5.824;2024-01-30T00:37:39;10.9;;;7.1;;
60718;SDS011;46567;51.660;5.824;2024-01-30T00:42:39;11.8;;;7.2;;
60718;SDS011;46567;51.660;5.824;2024-01-30T00:47:39;12.1;;;7.1;;
60718;SDS011;46567;51.660;5.824;2024-01-30T00:52:39;14.2;;;8.6;;
60718;SDS011;46567;51.660;5.824;2024-01-30T00:57:39;13.4;;;7.5;;
60718;SDS011;46567;51.660;5.824;2024-01-30T01:02:39;13.4;;;7.3;;
60718;SDS011;46567;51.660;5.824;2024-01-30T01:07:39;12.2;;;8.2;;
60718;SDS011;46567;51.660;5.824;2024-01-30T01:12:39;14.6;;;7.9;;
60718;SDS011;46567;51.660;5.824;2024-01-30T01:17:39;12.4;;;7.6;;
60718;SDS011;46567;51.660;5.824;2024-01-30T01:22:39;11.5;;;6.7;;
60718;SDS011;46567;51.660;5.824;2024-01-30T01:27:39;10.9;;;7.2;;
60718;SDS011;46567;51.660;5.824;2024-01-30T01:32:39;10.2;;;7.0;;
60718;SDS011;46567;51.660;5.824;2024-01-30T01:37:39;9.9;;;7.3;;
60718;SDS011;46567;51.660;5.824;2024-01-30T01:42:39;12.8;;;7.6;;
60718;SDS011;46567;51.660;5.824;2024-01-30T01:47:39;11.8;;;7.3;;
60718;SDS011;46567;51.660;5.824;2024-01-30T01:52:41;11.0;;;7.4;;
60718;SDS011;46567;51.660;5.824;2024-01-30T01:57:39;12.7;;;7.3;;
60718;SDS011;46567;51.660;5.824;2024-01-30T02:02:39;12.0;;;7.1;;
60718;SDS011;46567;51.660;5.824;2024-01-30T02:07:39;11.2;;;7.3;;
60718;SDS011;46567;51.660;5.824;2024-01-30T02:17:39;9.4;;;6.6;;
60718;SDS011;46567;51.660;5.824;2024-01-30T02:22:41;11.7;;;7.6;;
60718;SDS011;46567;51.660;5.824;2024-01-30T02:27:39;12.7;;;7.2;;
60718;SDS011;46567;51.660;5.824;2024-01-30T02:32:39;14.6;;;7.4;;
60718;SDS011;46567;51.660;5.824;2024-01-30T02:37:39;11.9;;;7.4;;
60718;SDS011;46567;51.660;5.824;2024-01-30T02:42:39;12.4;;;7.1;;
60718;SDS011;46567;51.660;5.824;2024-01-30T02:47:40;9.5;;;6.5;;
60718;SDS011;46567;51.660;5.824;2024-01-30T02:52:39;11.6;;;6.8;;
60718;SDS011;46567;51.660;5.824;2024-01-30T02:57:39;8.3;;;6.5;;
60718;SDS011;46567;51.660;5.824;2024-01-30T03:02:39;13.6;;;8.3;;
60718;SDS011;46567;51.660;5.824;2024-01-30T03:07:39;12.0;;;7.3;;
60718;SDS011;46567;51.660;5.824;2024-01-30T03:12:39;11.8;;;7.0;;
60718;SDS011;46567;51.660;5.824;2024-01-30T03:17:40;12.7;;;7.0;;
60718;SDS011;46567;51.660;5.824;2024-01-30T03:22:39;10.4;;;6.5;;
60718;SDS011;46567;51.660;5.824;2024-01-30T03:27:39;12.7;;;6.9;;
60718;SDS011;46567;51.660;5.824;2024-01-30T03:32:39;9.8;;;6.4;;
60718;SDS011;46567;51.660;5.824;2024-01-30T03:37:39;9.8;;;6.4;;
60718;SDS011;46567;51.660;5.824;2024-01-30T03:42:39;9.2;;;6.0;;
60718;SDS011;46567;51.660;5.824;2024-01-30T03:47:39;12.3;;;7.0;;
60718;SDS011;46567;51.660;5.824;2024-01-30T03:52:40;10.3;;;6.4;;
60718;SDS011;46567;51.660;5.824;2024-01-30T03:57:39;9.6;;;6.4;;
60718;SDS011;46567;51.660;5.824;2024-01-30T04:02:39;9.9;;;6.4;;
60718;SDS011;46567;51.660;5.824;2024-01-30T04:07:39;8.9;;;6.0;;
60718;SDS011;46567;51.660;5.824;2024-01-30T04:12:39;9.9;;;6.1;;
60718;SDS011;46567;51.660;5.824;2024-01-30T04:17:39;9.6;;;6.1;;
60718;SDS011;46567;51.660;5.824;2024-01-30T04:22:39;9.2;;;6.7;;
60718;SDS011;46567;51.660;5.824;2024-01-30T04:27:39;10.1;;;6.7;;
60718;SDS011;46567;51.660;5.824;2024-01-30T04:32:39;10.1;;;5.7;;
60718;SDS011;46567;51.660;5.824;2024-01-30T04:37:39;11.3;;;6.3;;
60718;SDS011;46567;51.660;5.824;2024-01-30T04:42:39;10.7;;;6.2;;
60718;SDS011;46567;51.660;5.824;2024-01-30T04:47:39;9.0;;;6.2;;
60718;SDS011;46567;51.660;5.824;2024-01-30T04:52:39;9.9;;;6.1;;
60718;SDS011;46567;51.660;5.824;2024-01-30T04:57:39;8.2;;;5.8;;
60718;SDS011;46567;51.660;5.824;2024-01-30T05:02:39;9.2;;;6.0;;
60718;SDS011;46567;51.660;5.824;2024-01-30T05:07:41;9.6;;;6.2;;
60718;SDS011;46567;51.660;5.824;2024-01-30T05:12:39;10.6;;;5.6;;
60718;SDS011;46567;51.660;5.824;2024-01-30T05:17:39;7.2;;;5.1;;
60718;SDS011;46567;51.660;5.824;2024-01-30T05:22:39;9.7;;;5.5;;
60718;SDS011;46567;51.660;5.824;2024-01-30T05:27:39;7.8;;;5.6;;
60718;SDS011;46567;51.660;5.824;2024-01-30T05:32:39;13.8;;;5.6;;
60718;SDS011;46567;51.660;5.824;2024-01-30T05:37:39;8.8;;;5.8;;
60718;SDS011;46567;51.660;5.824;2024-01-30T05:42:39;7.3;;;4.8;;
60718;SDS011;46567;51.660;5.824;2024-01-30T05:47:39;8.4;;;5.1;;
60718;SDS011;46567;51.660;5.824;2024-01-30T05:52:39;9.0;;;5.3;;
60718;SDS011;46567;51.660;5.824;2024-01-30T05:57:39;8.0;;;5.1;;
60718;SDS011;46567;51.660;5.824;2024-01-30T06:02:39;8.1;;;5.0;;
60718;SDS011;46567;51.660;5.824;2024-01-30T06:07:39;7.0;;;4.6;;
60718;SDS011;46567;51.660;5.824;2024-01-30T06:12:39;11.9;;;5.3;;
60718;SDS011;46567;51.660;5.824;2024-01-30T06:17:39;9.1;;;5.5;;
60718;SDS011;46567;51.660;5.824;2024-01-30T06:22:39;9.5;;;5.5;;
60718;SDS011;46567;51.660;5.824;2024-01-30T06:27:39;10.1;;;5.4;;
60718;SDS011;46567;51.660;5.824;2024-01-30T06:32:39;9.1;;;5.8;;
60718;SDS011;46567;51.660;5.824;2024-01-30T06:37:39;9.0;;;6.0;;
60718;SDS011;46567;51.660;5.824;2024-01-30T06:42:39;8.1;;;5.1;;
60718;SDS011;46567;51.660;5.824;2024-01-30T06:47:39;9.0;;;5.1;;
60718;SDS011;46567;51.660;5.824;2024-01-30T06:52:39;8.3;;;5.4;;
60718;SDS011;46567;51.660;5.824;2024-01-30T06:57:39;11.2;;;5.4;;
60718;SDS011;46567;51.660;5.824;2024-01-30T07:02:39;7.4;;;5.4;;
60718;SDS011;46567;51.660;5.824;2024-01-30T07:07:39;7.9;;;5.3;;
60718;SDS011;46567;51.660;5.824;2024-01-30T07:12:39;7.8;;;5.2;;
60718;SDS011;46567;51.660;5.824;2024-01-30T07:17:39;7.3;;;5.0;;
60718;SDS011;46567;51.660;5.824;2024-01-30T07:22:39;9.8;;;6.0;;
60718;SDS011;46567;51.660;5.824;2024-01-30T07:27:39;7.6;;;5.4;;
60718;SDS011;46567;51.660;5.824;2024-01-30T07:32:39;7.7;;;5.0;;
60718;SDS011;46567;51.660;5.824;2024-01-30T07:37:39;7.4;;;4.8;;
60718;SDS011;46567;51.660;5.824;2024-01-30T07:42:39;6.8;;;5.0;;
60718;SDS011;46567;51.660;5.824;2024-01-30T07:52:39;8.6;;;4.5;;
60718;SDS011;46567;51.660;5.824;2024-01-30T07:57:39;8.1;;;5.3;;
60718;SDS011;46567;51.660;5.824;2024-01-30T08:02:39;7.5;;;4.8;;
60718;SDS011;46567;51.660;5.824;2024-01-30T08:07:39;9.3;;;5.2;;
60718;SDS011;46567;51.660;5.824;2024-01-30T08:12:39;7.2;;;4.7;;
60718;SDS011;46567;51.660;5.824;2024-01-30T08:17:39;7.3;;;4.5;;
60718;SDS011;46567;51.660;5.824;2024-01-30T08:22:39;7.4;;;4.3;;
60718;SDS011;46567;51.660;5.824;2024-01-30T08:27:39;9.4;;;4.9;;
60718;SDS011;46567;51.660;5.824;2024-01-30T08:32:39;6.6;;;4.3;;
60718;SDS011;46567;51.660;5.824;2024-01-30T08:37:39;7.0;;;4.8;;
60718;SDS011;46567;51.660;5.824;2024-01-30T08:42:39;6.4;;;4.3;;
60718;SDS011;46567;51.660;5.824;2024-01-30T08:47:40;7.0;;;4.1;;
60718;SDS011;46567;51.660;5.824;2024-01-30T08:52:39;7.1;;;4.7;;
60718;SDS011;46567;51.660;5.824;2024-01-30T08:57:39;7.1;;;4.2;;
60718;SDS011;46567;51.660;5.824;2024-01-30T09:02:39;8.6;;;4.6;;
60718;SDS011;46567;51.660;5.824;2024-01-30T09:07:39;6.8;;;4.1;;
60718;SDS011;46567;51.660;5.824;2024-01-30T09:12:39;7.0;;;4.4;;
60718;SDS011;46567;51.660;5.824;2024-01-30T09:17:39;7.4;;;4.9;;
60718;SDS011;46567;51.660;5.824;2024-01-30T09:22:39;7.8;;;4.9;;
60718;SDS011;46567;51.660;5.824;2024-01-30T09:27:39;6.5;;;4.5;;
60718;SDS011;46567;51.660;5.824;2024-01-30T09:32:40;8.4;;;4.5;;
60718;SDS011;46567;51.660;5.824;2024-01-30T09:37:39;7.8;;;4.3;;
60718;SDS011;46567;51.660;5.824;2024-01-30T09:42:39;6.6;;;4.6;;
60718;SDS011;46567;51.660;5.824;2024-01-30T09:47:40;7.6;;;4.5;;
60718;SDS011;46567;51.660;5.824;2024-01-30T09:52:40;7.5;;;4.6;;
60718;SDS011;46567;51.660;5.824;2024-01-30T09:57:41;9.5;;;4.8;;
60718;SDS011;46567;51.660;5.824;2024-01-30T10:02:40;8.2;;;4.8;;
60718;SDS011;46567;51.660;5.824;2024-01-30T10:07:39;7.1;;;4.4;;
60718;SDS011;46567;51.660;5.824;2024-01-30T10:12:40;9.3;;;5.3;;
60718;SDS011;46567;51.660;5.824;2024-01-30T10:17:39;11.3;;;4.9;;
60718;SDS011;46567;51.660;5.824;2024-01-30T10:22:40;8.3;;;5.0;;
60718;SDS011;46567;51.660;5.824;2024-01-30T10:27:39;7.9;;;5.1;;
60718;SDS011;46567;51.660;5.824;2024-01-30T10:32:39;9.0;;;4.7;;
60718;SDS011;46567;51.660;5.824;2024-01-30T10:37:39;12.3;;;5.3;;
60718;SDS011;46567;51.660;5.824;2024-01-30T10:42:43;11.0;;;5.4;;
60718;SDS011;46567;51.660;5.824;2024-01-30T10:47:40;8.7;;;5.8;;
60718;SDS011;46567;51.660;5.824;2024-01-30T10:52:40;9.1;;;5.3;;
60718;SDS011;46567;51.660;5.824;2024-01-30T10:57:39;8.7;;;4.6;;
60718;SDS011;46567;51.660;5.824;2024-01-30T11:02:41;9.3;;;5.6;;
60718;SDS011;46567;51.660;5.824;2024-01-30T11:07:39;8.9;;;5.1;;
60718;SDS011;46567;51.660;5.824;2024-01-30T11:12:40;8.7;;;5.1;;
60718;SDS011;46567;51.660;5.824;2024-01-30T11:17:40;8.8;;;5.1;;
60718;SDS011;46567;51.660;5.824;2024-01-30T11:22:41;16.9;;;6.2;;
60718;SDS011;46567;51.660;5.824;2024-01-30T11:27:40;8.3;;;4.9;;
60718;SDS011;46567;51.660;5.824;2024-01-30T11:32:39;9.3;;;5.4;;
60718;SDS011;46567;51.660;5.824;2024-01-30T11:37:39;9.0;;;5.5;;
60718;SDS011;46567;51.660;5.824;2024-01-30T11:42:39;11.0;;;5.5;;
60718;SDS011;46567;51.660;5.824;2024-01-30T11:47:40;9.1;;;5.1;;
60718;SDS011;46567;51.660;5.824;2024-01-30T11:52:40;8.0;;;5.2;;
60718;SDS011;46567;51.660;5.824;2024-01-30T11:57:39;8.1;;;5.4;;
60718;SDS011;46567;51.660;5.824;2024-01-30T12:02:40;12.6;;;5.9;;
60718;SDS011;46567;51.660;5.824;2024-01-30T12:07:39;8.2;;;5.8;;
60718;SDS011;46567;51.660;5.824;2024-01-30T12:12:42;9.2;;;5.1;;
60718;SDS011;46567;51.660;5.824;2024-01-30T12:17:39;13.0;;;5.4;;
60718;SDS011;46567;51.660;5.824;2024-01-30T12:22:40;9.8;;;5.1;;
60718;SDS011;46567;51.660;5.824;2024-01-30T12:27:42;7.1;;;4.1;;
60718;SDS011;46567;51.660;5.824;2024-01-30T12:32:40;8.5;;;4.0;;
60718;SDS011;46567;51.660;5.824;2024-01-30T12:37:40;6.8;;;3.7;;
60718;SDS011;46567;51.660;5.824;2024-01-30T12:42:39;7.9;;;4.1;;
60718;SDS011;46567;51.660;5.824;2024-01-30T12:47:39;4.8;;;3.2;;
60718;SDS011;46567;51.660;5.824;2024-01-30T12:52:39;6.6;;;2.9;;
60718;SDS011;46567;51.660;5.824;2024-01-30T12:57:39;4.7;;;3.1;;
60718;SDS011;46567;51.660;5.824;2024-01-30T13:02:39;6.7;;;2.7;;
60718;SDS011;46567;51.660;5.824;2024-01-30T13:07:39;11.5;;;2.6;;
60718;SDS011;46567;51.660;5.824;2024-01-30T13:12:39;3.6;;;2.3;;
60718;SDS011;46567;51.660;5.824;2024-01-30T13:17:39;5.6;;;1.8;;
60718;SDS011;46567;51.660;5.824;2024-01-30T13:22:39;2.2;;;1.4;;
60718;SDS011;46567;51.660;5.824;2024-01-30T13:27:39;4.7;;;1.6;;
60718;SDS011;46567;51.660;5.824;2024-01-30T13:32:39;3.5;;;1.5;;
60718;SDS011;46567;51.660;5.824;2024-01-30T13:37:39;3.1;;;1.1;;
60718;SDS011;46567;51.660;5.824;2024-01-30T13:42:39;2.7;;;1.5;;
60718;SDS011;46567;51.660;5.824;2024-01-30T13:47:39;1.9;;;1.0;;
60718;SDS011;46567;51.660;5.824;2024-01-30T13:52:39;5.4;;;1.2;;
60718;SDS011;46567;51.660;5.824;2024-01-30T13:57:39;3.6;;;1.2;;
60718;SDS011;46567;51.660;5.824;2024-01-30T14:02:39;4.0;;;1.3;;
60718;SDS011;46567;51.660;5.824;2024-01-30T14:07:39;3.2;;;1.4;;
60718;SDS011;46567;51.660;5.824;2024-01-30T14:12:39;2.8;;;1.1;;
60718;SDS011;46567;51.660;5.824;2024-01-30T14:17:40;2.7;;;1.3;;
60718;SDS011;46567;51.660;5.824;2024-01-30T14:22:39;2.6;;;1.4;;
60718;SDS011;46567;51.660;5.824;2024-01-30T14:27:39;2.7;;;1.9;;
60718;SDS011;46567;51.660;5.824;2024-01-30T14:32:39;3.7;;;1.2;;
60718;SDS011;46567;51.660;5.824;2024-01-30T14:37:39;4.1;;;1.6;;
60718;SDS011;46567;51.660;5.824;2024-01-30T14:42:39;2.8;;;1.5;;
60718;SDS011;46567;51.660;5.824;2024-01-30T14:47:39;3.4;;;1.1;;
60718;SDS011;46567;51.660;5.824;2024-01-30T14:52:39;2.9;;;1.3;;
60718;SDS011;46567;51.660;5.824;2024-01-30T14:57:39;3.1;;;1.2;;
60718;SDS011;46567;51.660;5.824;2024-01-30T15:02:39;1.9;;;1.6;;
60718;SDS011;46567;51.660;5.824;2024-01-30T15:07:40;2.6;;;1.8;;
60718;SDS011;46567;51.660;5.824;2024-01-30T15:12:39;4.0;;;2.1;;
60718;SDS011;46567;51.660;5.824;2024-01-30T15:17:39;4.9;;;2.5;;
60718;SDS011;46567;51.660;5.824;2024-01-30T15:22:39;6.4;;;2.7;;
60718;SDS011;46567;51.660;5.824;2024-01-30T15:27:39;4.6;;;2.9;;
60718;SDS011;46567;51.660;5.824;2024-01-30T15:32:39;7.7;;;2.6;;
60718;SDS011;46567;51.660;5.824;2024-01-30T15:37:39;5.1;;;2.8;;
60718;SDS011;46567;51.660;5.824;2024-01-30T15:42:39;8.8;;;3.4;;
60718;SDS011;46567;51.660;5.824;2024-01-30T15:47:39;6.6;;;3.9;;
60718;SDS011;46567;51.660;5.824;2024-01-30T15:52:39;5.1;;;3.2;;
60718;SDS011;46567;51.660;5.824;2024-01-30T15:57:39;7.3;;;3.6;;
60718;SDS011;46567;51.660;5.824;2024-01-30T16:02:39;17.8;;;3.3;;
60718;SDS011;46567;51.660;5.824;2024-01-30T16:07:40;4.6;;;2.5;;
60718;SDS011;46567;51.660;5.824;2024-01-30T16:12:39;9.5;;;2.7;;
60718;SDS011;46567;51.660;5.824;2024-01-30T16:17:40;4.8;;;2.5;;
60718;SDS011;46567;51.660;5.824;2024-01-30T16:22:39;5.4;;;2.8;;
60718;SDS011;46567;51.660;5.824;2024-01-30T16:27:39;6.9;;;2.2;;
60718;SDS011;46567;51.660;5.824;2024-01-30T16:32:39;10.0;;;3.2;;
60718;SDS011;46567;51.660;5.824;2024-01-30T16:37:39;4.9;;;2.6;;
60718;SDS011;46567;51.660;5.824;2024-01-30T16:42:39;5.1;;;3.0;;
60718;SDS011;46567;51.660;5.824;2024-01-30T16:47:39;6.0;;;2.7;;
60718;SDS011;46567;51.660;5.824;2024-01-30T16:52:39;6.9;;;3.3;;
60718;SDS011;46567;51.660;5.824;2024-01-30T16:57:39;3.9;;;2.9;;
60718;SDS011;46567;51.660;5.824;2024-01-30T17:02:40;6.7;;;3.4;;
60718;SDS011;46567;51.660;5.824;2024-01-30T17:07:39;6.5;;;3.8;;
60718;SDS011;46567;51.660;5.824;2024-01-30T17:12:40;6.1;;;4.0;;
60718;SDS011;46567;51.660;5.824;2024-01-30T17:17:39;8.1;;;4.4;;
60718;SDS011;46567;51.660;5.824;2024-01-30T17:22:39;9.0;;;5.1;;
60718;SDS011;46567;51.660;5.824;2024-01-30T17:27:40;6.7;;;4.8;;
60718;SDS011;46567;51.660;5.824;2024-01-30T17:37:40;8.2;;;5.5;;
60718;SDS011;46567;51.660;5.824;2024-01-30T17:42:40;9.3;;;5.7;;
60718;SDS011;46567;51.660;5.824;2024-01-30T17:47:40;11.4;;;6.9;;
60718;SDS011;46567;51.660;5.824;2024-01-30T17:52:40;9.9;;;6.0;;
60718;SDS011;46567;51.660;5.824;2024-01-30T17:57:40;11.3;;;5.9;;
60718;SDS011;46567;51.660;5.824;2024-01-30T18:02:40;10.8;;;6.3;;
60718;SDS011;46567;51.660;5.824;2024-01-30T18:07:39;12.4;;;6.3;;
60718;SDS011;46567;51.660;5.824;2024-01-30T18:12:39;8.8;;;5.4;;
60718;SDS011;46567;51.660;5.824;2024-01-30T18:17:40;9.2;;;6.1;;
60718;SDS011;46567;51.660;5.824;2024-01-30T18:22:39;11.3;;;6.4;;
60718;SDS011;46567;51.660;5.824;2024-01-30T18:27:40;11.5;;;6.7;;
60718;SDS011;46567;51.660;5.824;2024-01-30T18:32:40;10.2;;;6.4;;
60718;SDS011;46567;51.660;5.824;2024-01-30T18:37:39;12.3;;;7.0;;
60718;SDS011;46567;51.660;5.824;2024-01-30T18:42:39;11.8;;;7.0;;
60718;SDS011;46567;51.660;5.824;2024-01-30T18:47:39;11.2;;;6.0;;
60718;SDS011;46567;51.660;5.824;2024-01-30T18:52:39;10.0;;;5.8;;
60718;SDS011;46567;51.660;5.824;2024-01-30T18:57:39;10.7;;;6.4;;
60718;SDS011;46567;51.660;5.824;2024-01-30T19:02:40;11.1;;;7.3;;
60718;SDS011;46567;51.660;5.824;2024-01-30T19:07:40;12.8;;;6.7;;
60718;SDS011;46567;51.660;5.824;2024-01-30T19:12:40;12.2;;;6.8;;
60718;SDS011;46567;51.660;5.824;2024-01-30T19:17:39;11.4;;;6.5;;
60718;SDS011;46567;51.660;5.824;2024-01-30T19:22:39;12.7;;;6.6;;
60718;SDS011;46567;51.660;5.824;2024-01-30T19:27:40;10.7;;;6.5;;
60718;SDS011;46567;51.660;5.824;2024-01-30T19:32:40;9.1;;;5.6;;
60718;SDS011;46567;51.660;5.824;2024-01-30T19:37:39;9.3;;;6.4;;
60718;SDS011;46567;51.660;5.824;2024-01-30T19:42:40;9.6;;;5.8;;
60718;SDS011;46567;51.660;5.824;2024-01-30T19:47:40;8.8;;;5.8;;
60718;SDS011;46567;51.660;5.824;2024-01-30T19:52:41;14.9;;;5.7;;
60718;SDS011;46567;51.660;5.824;2024-01-30T19:57:40;7.8;;;5.6;;
60718;SDS011;46567;51.660;5.824;2024-01-30T20:02:40;10.1;;;5.8;;
60718;SDS011;46567;51.660;5.824;2024-01-30T20:07:40;10.0;;;6.1;;
60718;SDS011;46567;51.660;5.824;2024-01-30T20:12:40;9.1;;;6.0;;
60718;SDS011;46567;51.660;5.824;2024-01-30T20:17:40;12.5;;;7.0;;
60718;SDS011;46567;51.660;5.824;2024-01-30T20:22:40;9.2;;;6.1;;
60718;SDS011;46567;51.660;5.824;2024-01-30T20:27:40;13.0;;;7.4;;
60718;SDS011;46567;51.660;5.824;2024-01-30T20:32:40;12.1;;;7.0;;
60718;SDS011;46567;51.660;5.824;2024-01-30T20:37:40;11.7;;;7.0;;
60718;SDS011;46567;51.660;5.824;2024-01-30T20:42:40;11.9;;;6.9;;
60718;SDS011;46567;51.660;5.824;2024-01-30T20:47:40;12.2;;;7.3;;
60718;SDS011;46567;51.660;5.824;2024-01-30T20:52:40;10.0;;;5.9;;
60718;SDS011;46567;51.660;5.824;2024-01-30T20:57:40;8.1;;;3.9;;
60718;SDS011;46567;51.660;5.824;2024-01-30T21:02:40;7.9;;;3.9;;
60718;SDS011;46567;51.660;5.824;2024-01-30T21:07:40;7.0;;;3.8;;
60718;SDS011;46567;51.660;5.824;2024-01-30T21:12:40;7.3;;;3.6;;
60718;SDS011;46567;51.660;5.824;2024-01-30T21:17:40;8.5;;;3.8;;
60718;SDS011;46567;51.660;5.824;2024-01-30T21:22:40;9.8;;;3.3;;
60718;SDS011;46567;51.660;5.824;2024-01-30T21:27:40;10.8;;;3.7;;
60718;SDS011;46567;51.660;5.824;2024-01-30T21:32:40;7.8;;;3.6;;
60718;SDS011;46567;51.660;5.824;2024-01-30T21:37:40;7.6;;;3.4;;
60718;SDS011;46567;51.660;5.824;2024-01-30T21:42:40;7.7;;;3.2;;
60718;SDS011;46567;51.660;5.824;2024-01-30T21:47:40;11.1;;;3.9;;
60718;SDS011;46567;51.660;5.824;2024-01-30T21:52:40;10.6;;;2.9;;
60718;SDS011;46567;51.660;5.824;2024-01-30T21:57:40;6.9;;;3.4;;
60718;SDS011;46567;51.660;5.824;2024-01-30T22:02:40;9.8;;;3.0;;
60718;SDS011;46567;51.660;5.824;2024-01-30T22:07:40;8.1;;;2.8;;
60718;SDS011;46567;51.660;5.824;2024-01-30T22:12:40;10.5;;;3.9;;
60718;SDS011;46567;51.660;5.824;2024-01-30T22:17:40;10.8;;;3.1;;
60718;SDS011;46567;51.660;5.824;2024-01-30T22:22:40;10.6;;;4.0;;
60718;SDS011;46567;51.660;5.824;2024-01-30T22:27:40;10.5;;;3.5;;
60718;SDS011;46567;51.660;5.824;2024-01-30T22:32:40;7.8;;;3.6;;
60718;SDS011;46567;51.660;5.824;2024-01-30T22:37:40;14.6;;;4.2;;
60718;SDS011;46567;51.660;5.824;2024-01-30T22:42:41;10.1;;;3.5;;
60718;SDS011;46567;51.660;5.824;2024-01-30T22:47:40;13.6;;;4.3;;
60718;SDS011;46567;51.660;5.824;2024-01-30T22:52:40;12.4;;;4.0;;
60718;SDS011;46567;51.660;5.824;2024-01-30T22:57:40;11.5;;;3.4;;
60718;SDS011;46567;51.660;5.824;2024-01-30T23:02:40;10.9;;;3.4;;
60718;SDS011;46567;51.660;5.824;2024-01-30T23:07:40;7.6;;;4.0;;
60718;SDS011;46567;51.660;5.824;2024-01-30T23:12:40;8.5;;;3.8;;
60718;SDS011;46567;51.660;5.824;2024-01-30T23:17:40;11.4;;;3.5;;
60718;SDS011;46567;51.660;5.824;2024-01-30T23:22:40;6.7;;;2.3;;
60718;SDS011;46567;51.660;5.824;2024-01-30T23:27:41;12.8;;;3.2;;
60718;SDS011;46567;51.660;5.824;2024-01-30T23:32:40;7.0;;;2.6;;
60718;SDS011;46567;51.660;5.824;2024-01-30T23:37:40;10.1;;;2.2;;
60718;SDS011;46567;51.660;5.824;2024-01-30T23:42:40;4.3;;;1.6;;
60718;SDS011;46567;51.660;5.824;2024-01-30T23:47:40;3.3;;;0.8;;
60718;SDS011;46567;51.660;5.824;2024-01-30T23:52:40;5.3;;;1.6;;
60718;SDS011;46567;51.660;5.824;2024-01-30T23:57:40;3.8;;;1.0;;
